createdAt,value
2023-01-19T00:01:40.628Z,79.96
2023-01-19T00:04:07.161Z,80.27
2023-01-19T00:06:33.751Z,79.86
2023-01-19T00:09:00.326Z,78.74
2023-01-19T00:11:26.898Z,80.81
2023-01-19T00:13:53.655Z,80.70
2023-01-19T00:16:21.723Z,80.52
2023-01-19T00:18:50.321Z,79.97
2023-01-19T00:21:16.933Z,78.60
2023-01-19T00:23:43.965Z,77.84
2023-01-19T00:26:10.997Z,77.63
2023-01-19T00:28:37.532Z,78.00
2023-01-19T00:31:04.157Z,77.98
2023-01-19T00:33:30.883Z,78.61
2023-01-19T00:35:57.361Z,78.53
2023-01-19T00:38:24.284Z,80.15
2023-01-19T00:40:50.800Z,80.55
2023-01-19T00:43:17.286Z,81.04
2023-01-19T00:45:43.877Z,81.84
2023-01-19T00:48:10.379Z,81.84
2023-01-19T00:50:36.889Z,82.38
2023-01-19T00:53:03.778Z,81.99
2023-01-19T00:55:30.983Z,81.60
2023-01-19T00:57:58.186Z,81.42
2023-01-19T01:00:24.873Z,79.59
2023-01-19T01:02:52.100Z,79.42
2023-01-19T01:05:18.789Z,81.63
2023-01-19T01:07:45.606Z,81.75
2023-01-19T01:10:16.435Z,81.74
2023-01-19T01:12:56.049Z,79.79
2023-01-19T01:15:24.791Z,80.81
2023-01-19T01:17:53.038Z,80.59
2023-01-19T01:20:21.360Z,80.55
2023-01-19T01:22:49.969Z,80.25
2023-01-19T01:25:17.371Z,80.22
2023-01-19T01:27:43.858Z,80.18
2023-01-19T01:30:11.863Z,78.96
2023-01-19T01:32:38.391Z,77.94
2023-01-19T01:35:05.316Z,78.73
2023-01-19T01:37:31.949Z,79.23
2023-01-19T01:39:58.705Z,78.86
2023-01-19T01:42:27.395Z,78.76
2023-01-19T01:44:58.623Z,79.35
2023-01-19T01:47:30.770Z,78.94
2023-01-19T01:50:13.111Z,79.11
2023-01-19T01:53:06.387Z,77.69
2023-01-19T01:55:32.273Z,76.52
2023-01-19T01:58:01.599Z,75.98
2023-01-19T02:00:28.250Z,76.72
2023-01-19T02:02:55.206Z,78.38
2023-01-19T02:05:26.630Z,77.01
2023-01-19T02:08:26.037Z,78.17
2023-01-19T02:11:11.030Z,76.41
2023-01-19T02:13:39.012Z,75.11
2023-01-19T02:16:08.707Z,75.37
2023-01-19T02:18:35.255Z,75.13
2023-01-19T02:21:09.805Z,74.99
2023-01-19T02:23:46.736Z,77.01
2023-01-19T02:26:15.986Z,77.05
2023-01-19T02:28:45.009Z,77.54
2023-01-19T02:31:11.539Z,76.21
2023-01-19T02:33:38.076Z,78.83
2023-01-19T02:36:05.434Z,78.96
2023-01-19T02:38:31.929Z,78.32
2023-01-19T02:40:59.251Z,76.80
2023-01-19T02:43:25.728Z,77.12
2023-01-19T02:45:52.360Z,78.01
2023-01-19T02:48:19.103Z,76.97
2023-01-19T02:50:49.132Z,78.72
2023-01-19T02:53:18.613Z,77.19
2023-01-19T02:55:46.871Z,77.49
2023-01-19T02:58:23.385Z,77.26
2023-01-19T03:01:00.310Z,77.79
2023-01-19T03:03:32.859Z,77.33
2023-01-19T03:06:08.627Z,78.70
2023-01-19T03:08:43.299Z,77.66
2023-01-19T03:11:13.161Z,77.47
2023-01-19T03:13:42.685Z,78.33
2023-01-19T03:16:30.391Z,78.69
2023-01-19T03:19:09.990Z,78.29
2023-01-19T03:21:37.106Z,76.80
2023-01-19T03:24:04.912Z,77.69
2023-01-19T03:26:44.146Z,77.73
2023-01-19T03:29:10.876Z,78.42
2023-01-19T03:31:37.431Z,77.95
2023-01-19T03:34:06.720Z,79.15
2023-01-19T03:36:36.077Z,79.08
2023-01-19T03:39:03.487Z,78.63
2023-01-19T03:41:30.311Z,78.73
2023-01-19T03:43:56.837Z,79.93
2023-01-19T03:46:23.666Z,79.13
2023-01-19T03:48:50.300Z,78.66
2023-01-19T03:51:16.789Z,78.18
2023-01-19T03:53:43.441Z,78.82
2023-01-19T03:56:21.650Z,78.85
2023-01-19T03:58:48.126Z,81.06
2023-01-19T04:01:15.133Z,79.81
2023-01-19T04:03:42.302Z,78.53
2023-01-19T04:06:09.452Z,77.85
2023-01-19T04:08:36.261Z,78.47
2023-01-19T04:11:03.645Z,77.84
2023-01-19T04:13:30.481Z,77.24
2023-01-19T04:16:03.695Z,77.17
2023-01-19T04:18:31.956Z,77.76
2023-01-19T04:21:01.373Z,77.90
2023-01-19T04:23:28.141Z,78.44
2023-01-19T04:25:58.803Z,80.04
2023-01-19T04:28:25.768Z,81.30
2023-01-19T04:30:52.361Z,80.84
2023-01-19T04:33:19.446Z,80.98
2023-01-19T04:35:46.518Z,78.85
2023-01-19T04:38:13.141Z,78.21
2023-01-19T04:40:39.609Z,79.14
2023-01-19T04:43:06.550Z,78.43
2023-01-19T04:45:33.582Z,78.71
2023-01-19T04:48:00.648Z,79.49
2023-01-19T04:50:27.162Z,79.44
2023-01-19T04:52:53.721Z,79.73
2023-01-19T04:55:20.193Z,79.50
2023-01-19T04:57:46.697Z,79.65
2023-01-19T05:00:13.549Z,80.36
2023-01-19T05:02:42.108Z,80.06
2023-01-19T05:05:08.996Z,79.48
2023-01-19T05:07:35.810Z,80.29
2023-01-19T05:10:02.437Z,79.71
2023-01-19T05:12:28.955Z,79.92
2023-01-19T05:14:55.521Z,80.21
2023-01-19T05:17:22.032Z,80.66
2023-01-19T05:19:48.974Z,80.95
2023-01-19T05:22:15.770Z,81.15
2023-01-19T05:24:42.248Z,82.27
2023-01-19T05:27:08.890Z,81.53
2023-01-19T05:29:35.473Z,81.87
2023-01-19T05:32:02.003Z,82.19
2023-01-19T05:34:28.522Z,81.98
2023-01-19T05:36:55.057Z,82.36
2023-01-19T05:39:21.615Z,82.43
2023-01-19T05:41:48.174Z,82.49
2023-01-19T05:44:14.713Z,82.99
2023-01-19T05:46:41.333Z,83.08
2023-01-19T05:49:07.972Z,83.01
2023-01-19T05:51:37.949Z,83.43
2023-01-19T05:54:05.368Z,83.52
2023-01-19T05:56:32.788Z,84.20
2023-01-19T05:59:00.183Z,84.53
2023-01-19T06:01:27.140Z,84.01
2023-01-19T06:03:53.717Z,84.02
2023-01-19T06:06:20.370Z,83.53
2023-01-19T06:08:46.895Z,83.72
2023-01-19T06:11:13.426Z,83.65
2023-01-19T06:13:41.969Z,84.35
2023-01-19T06:16:08.701Z,83.97
2023-01-19T06:18:35.246Z,84.67
2023-01-19T06:21:06.346Z,84.32
2023-01-19T06:23:33.338Z,84.08
2023-01-19T06:25:59.853Z,83.91
2023-01-19T06:28:26.437Z,83.72
2023-01-19T06:30:53.528Z,84.28
2023-01-19T06:33:20.041Z,84.63
2023-01-19T06:35:47.640Z,84.91
2023-01-19T06:38:14.335Z,84.98
2023-01-19T06:40:41.224Z,84.36
2023-01-19T06:43:08.041Z,85.02
2023-01-19T06:45:34.590Z,85.31
2023-01-19T06:48:01.254Z,85.11
2023-01-19T06:50:27.886Z,85.12
2023-01-19T06:52:54.440Z,84.99
2023-01-19T06:55:20.909Z,84.94
2023-01-19T06:57:56.554Z,85.32
2023-01-19T07:00:24.249Z,84.80
2023-01-19T07:02:50.782Z,85.04
2023-01-19T07:05:17.473Z,85.20
2023-01-19T07:07:44.911Z,85.28
2023-01-19T07:10:12.068Z,85.01
2023-01-19T07:12:39.064Z,84.86
2023-01-19T07:15:06.727Z,84.51
2023-01-19T07:17:33.558Z,84.16
2023-01-19T07:20:00.106Z,83.93
2023-01-19T07:22:26.606Z,84.51
2023-01-19T07:24:53.100Z,83.93
2023-01-19T07:27:19.667Z,84.67
2023-01-19T07:29:46.191Z,85.12
2023-01-19T07:32:12.812Z,84.68
2023-01-19T07:34:39.328Z,85.01
2023-01-19T07:37:05.848Z,85.16
2023-01-19T07:39:32.330Z,84.87
2023-01-19T07:41:58.917Z,84.86
2023-01-19T07:44:25.394Z,84.38
2023-01-19T07:46:51.877Z,83.53
2023-01-19T07:49:18.411Z,83.59
2023-01-19T07:51:44.898Z,83.93
2023-01-19T07:54:12.146Z,84.18
2023-01-19T07:56:38.678Z,83.04
2023-01-19T07:59:07.319Z,82.68
2023-01-19T08:01:33.934Z,82.80
2023-01-19T08:04:00.625Z,83.39
2023-01-19T08:06:30.264Z,82.66
2023-01-19T08:08:56.733Z,82.78
2023-01-19T08:11:23.279Z,82.75
2023-01-19T08:13:49.854Z,82.94
2023-01-19T08:16:16.385Z,82.28
2023-01-19T08:18:43.051Z,83.46
2023-01-19T08:21:09.622Z,82.59
2023-01-19T08:23:36.115Z,82.16
2023-01-19T08:26:02.956Z,82.06
2023-01-19T08:28:29.437Z,82.00
2023-01-19T08:30:56.104Z,81.47
2023-01-19T08:33:23.249Z,81.32
2023-01-19T08:35:51.518Z,80.91
2023-01-19T08:38:18.147Z,80.57
2023-01-19T08:40:44.784Z,80.39
2023-01-19T08:43:13.191Z,80.32
2023-01-19T08:45:42.384Z,79.90
2023-01-19T08:48:09.995Z,78.78
2023-01-19T08:50:36.494Z,77.91
2023-01-19T08:53:03.683Z,78.10
2023-01-19T08:55:30.497Z,78.90
2023-01-19T08:57:58.007Z,77.49
2023-01-19T09:00:27.455Z,77.58
2023-01-19T09:02:54.507Z,77.56
2023-01-19T09:05:21.081Z,77.34
2023-01-19T09:07:54.287Z,76.84
2023-01-19T09:10:20.839Z,76.64
2023-01-19T09:12:47.320Z,75.88
2023-01-19T09:15:14.969Z,75.05
2023-01-19T09:17:44.504Z,75.65
2023-01-19T09:20:11.168Z,75.42
2023-01-19T09:22:39.555Z,75.00
2023-01-19T09:25:07.538Z,75.29
2023-01-19T09:27:34.753Z,75.60
2023-01-19T09:30:01.214Z,75.31
2023-01-19T09:32:27.785Z,75.39
2023-01-19T09:34:55.061Z,74.67
2023-01-19T09:37:21.537Z,75.21
2023-01-19T09:39:48.410Z,75.23
2023-01-19T09:42:32.958Z,75.89
2023-01-19T09:44:59.541Z,74.90
2023-01-19T09:47:28.210Z,75.46
2023-01-19T09:50:03.216Z,75.06
2023-01-19T09:52:31.480Z,75.79
2023-01-19T09:54:58.172Z,75.34
2023-01-19T09:57:25.381Z,75.05
2023-01-19T09:59:51.917Z,75.02
2023-01-19T10:02:57.097Z,75.21
2023-01-19T10:05:37.316Z,75.49
2023-01-19T10:08:30.304Z,74.87
2023-01-19T10:10:57.453Z,73.87
2023-01-19T10:13:34.555Z,73.65
2023-01-19T10:16:10.157Z,74.38
2023-01-19T10:18:45.853Z,75.66
2023-01-19T10:21:15.415Z,74.91
2023-01-19T10:23:51.105Z,73.91
2023-01-19T10:26:33.985Z,74.88
2023-01-19T10:29:35.303Z,74.48
2023-01-19T10:32:21.117Z,75.72
2023-01-19T10:34:49.198Z,74.68
2023-01-19T10:37:27.704Z,74.26
2023-01-19T10:39:56.858Z,73.66
2023-01-19T10:42:23.423Z,73.69
2023-01-19T10:44:50.143Z,74.37
2023-01-19T10:47:18.460Z,73.42
2023-01-19T10:49:45.136Z,73.56
2023-01-19T10:52:28.953Z,73.53
2023-01-19T10:54:55.493Z,74.32
2023-01-19T10:57:30.645Z,74.11
2023-01-19T10:59:57.242Z,73.59
2023-01-19T11:02:28.135Z,73.39
2023-01-19T11:04:59.066Z,73.32
2023-01-19T11:07:43.889Z,73.15
2023-01-19T11:10:33.681Z,73.98
2023-01-19T11:13:12.517Z,74.24
2023-01-19T11:15:42.008Z,73.43
2023-01-19T11:18:08.494Z,73.91
2023-01-19T11:20:49.043Z,72.58
2023-01-19T11:23:25.921Z,71.09
2023-01-19T11:25:52.685Z,69.93
2023-01-19T11:28:20.659Z,71.43
2023-01-19T11:31:00.372Z,70.22
2023-01-19T11:33:33.821Z,70.95
2023-01-19T11:36:05.559Z,71.32
2023-01-19T11:38:32.169Z,71.34
2023-01-19T11:40:59.036Z,67.39
2023-01-19T11:43:39.849Z,67.78
2023-01-19T11:46:14.694Z,69.97
2023-01-19T11:49:01.128Z,68.26
2023-01-19T11:52:02.292Z,66.45
2023-01-19T11:54:36.111Z,66.78
2023-01-19T11:57:02.974Z,65.52
2023-01-19T11:59:29.583Z,66.04
2023-01-19T12:01:57.921Z,66.70
2023-01-19T12:04:33.375Z,67.27
2023-01-19T12:07:05.050Z,63.76
2023-01-19T12:09:35.050Z,65.56
2023-01-19T12:12:04.047Z,64.76
2023-01-19T12:14:52.376Z,63.60
2023-01-19T12:17:30.674Z,63.95
2023-01-19T12:20:15.966Z,63.71
2023-01-19T12:22:49.368Z,62.83
2023-01-19T12:25:25.468Z,63.73
2023-01-19T12:27:51.949Z,63.75
2023-01-19T12:30:18.428Z,63.79
2023-01-19T12:32:44.945Z,62.29
2023-01-19T12:35:49.006Z,62.72
2023-01-19T12:38:33.762Z,61.50
2023-01-19T12:41:25.022Z,62.02
2023-01-19T12:44:09.704Z,63.02
2023-01-19T12:47:07.547Z,61.45
2023-01-19T12:49:42.708Z,62.47
2023-01-19T12:52:20.059Z,62.24
2023-01-19T12:55:06.933Z,63.69
2023-01-19T12:57:38.769Z,64.12
2023-01-19T13:00:29.578Z,63.69
2023-01-19T13:03:00.217Z,64.67
2023-01-19T13:05:33.577Z,63.00
2023-01-19T13:08:03.012Z,63.64
2023-01-19T13:10:55.988Z,65.92
2023-01-19T13:13:37.599Z,64.77
2023-01-19T13:16:19.165Z,66.09
2023-01-19T13:18:52.614Z,63.58
2023-01-19T13:21:27.387Z,64.77
2023-01-19T13:23:55.723Z,63.61
2023-01-19T13:26:23.739Z,64.31
2023-01-19T13:28:52.419Z,66.08
2023-01-19T13:31:19.081Z,66.65
2023-01-19T13:33:55.562Z,66.50
2023-01-19T13:36:35.552Z,66.38
2023-01-19T13:39:04.029Z,67.46
2023-01-19T13:41:32.670Z,67.00
2023-01-19T13:44:04.975Z,66.72
2023-01-19T13:46:31.560Z,68.62
2023-01-19T13:49:06.098Z,67.44
2023-01-19T13:51:32.577Z,67.89
2023-01-19T13:54:01.449Z,68.03
2023-01-19T13:56:31.265Z,69.26
2023-01-19T13:59:11.670Z,69.09
2023-01-19T14:01:40.021Z,68.77
2023-01-19T14:04:06.756Z,69.04
2023-01-19T14:06:38.653Z,70.35
2023-01-19T14:09:09.467Z,71.65
2023-01-19T14:11:36.011Z,70.36
2023-01-19T14:14:02.909Z,69.99
2023-01-19T14:16:29.515Z,69.52
2023-01-19T14:19:00.633Z,71.18
2023-01-19T14:21:39.897Z,71.03
2023-01-19T14:24:08.475Z,70.40
2023-01-19T14:26:38.101Z,70.31
2023-01-19T14:29:31.755Z,69.30
2023-01-19T14:32:18.375Z,70.49
2023-01-19T14:34:52.012Z,71.13
2023-01-19T14:37:24.642Z,71.34
2023-01-19T14:39:58.990Z,71.15
2023-01-19T14:42:27.938Z,70.58
2023-01-19T14:44:55.374Z,72.48
2023-01-19T14:47:36.066Z,72.23
2023-01-19T14:50:09.325Z,71.71
2023-01-19T14:52:40.745Z,70.98
2023-01-19T14:55:16.520Z,72.43
2023-01-19T14:57:43.083Z,72.19
2023-01-19T15:00:17.379Z,72.47
2023-01-19T15:02:44.961Z,71.93
2023-01-19T15:05:11.650Z,72.12
2023-01-19T15:07:39.065Z,71.87
2023-01-19T15:10:07.133Z,71.40
2023-01-19T15:12:33.606Z,71.85
2023-01-19T15:15:00.326Z,71.54
2023-01-19T15:17:26.951Z,70.90
2023-01-19T15:19:54.238Z,71.52
2023-01-19T15:22:22.393Z,71.58
2023-01-19T15:24:49.714Z,70.66
2023-01-19T15:27:16.466Z,71.06
2023-01-19T15:29:42.979Z,73.37
2023-01-19T15:32:13.257Z,72.33
2023-01-19T15:34:39.858Z,72.18
2023-01-19T15:37:06.335Z,71.86
2023-01-19T15:39:32.910Z,72.13
2023-01-19T15:41:59.388Z,72.37
2023-01-19T15:44:25.944Z,71.74
2023-01-19T15:47:08.710Z,72.25
2023-01-19T15:49:35.199Z,71.96
2023-01-19T15:52:01.665Z,72.19
2023-01-19T15:54:28.720Z,72.40
2023-01-19T15:56:55.261Z,72.69
2023-01-19T15:59:23.601Z,73.22
2023-01-19T16:01:50.761Z,73.14
2023-01-19T16:04:18.164Z,73.59
2023-01-19T16:06:44.806Z,72.13
2023-01-19T16:09:16.707Z,73.38
2023-01-19T16:11:43.233Z,74.02
2023-01-19T16:14:09.753Z,73.79
2023-01-19T16:16:36.405Z,72.57
2023-01-19T16:19:02.951Z,74.01
2023-01-19T16:21:29.450Z,73.17
2023-01-19T16:23:55.999Z,73.64
2023-01-19T16:26:26.756Z,72.94
2023-01-19T16:28:56.474Z,73.31
2023-01-19T16:31:23.124Z,73.68
2023-01-19T16:33:49.662Z,73.10
2023-01-19T16:36:26.424Z,73.86
2023-01-19T16:38:53.268Z,72.87
2023-01-19T16:41:20.095Z,73.37
2023-01-19T16:43:51.840Z,73.76
2023-01-19T16:46:20.551Z,73.00
2023-01-19T16:48:47.101Z,72.54
2023-01-19T16:51:13.681Z,72.37
2023-01-19T16:53:40.210Z,72.96
2023-01-19T16:56:07.877Z,72.21
2023-01-19T16:58:34.638Z,72.62
2023-01-19T17:01:05.483Z,72.01
2023-01-19T17:03:31.982Z,72.36
2023-01-19T17:05:58.503Z,72.78
2023-01-19T17:08:25.000Z,72.88
2023-01-19T17:10:51.499Z,72.75
2023-01-19T17:13:18.192Z,72.34
2023-01-19T17:15:44.757Z,72.70
2023-01-19T17:18:11.280Z,72.26
2023-01-19T17:20:38.058Z,72.46
2023-01-19T17:23:04.546Z,72.85
2023-01-19T17:25:31.084Z,72.92
2023-01-19T17:28:00.270Z,72.82
2023-01-19T17:30:27.067Z,73.08
2023-01-19T17:32:53.645Z,73.13
2023-01-19T17:35:20.173Z,72.98
2023-01-19T17:37:46.657Z,74.88
2023-01-19T17:40:13.529Z,74.93
2023-01-19T17:42:41.569Z,74.42
2023-01-19T17:45:08.763Z,73.87
2023-01-19T17:47:35.247Z,73.87
2023-01-19T17:50:01.755Z,73.33
2023-01-19T17:52:28.272Z,73.19
2023-01-19T17:54:54.815Z,74.22
2023-01-19T17:57:21.314Z,74.16
2023-01-19T17:59:47.889Z,73.51
2023-01-19T18:02:14.537Z,74.10
2023-01-19T18:04:41.705Z,74.54
2023-01-19T18:07:08.180Z,75.14
2023-01-19T18:09:34.638Z,75.64
2023-01-19T18:12:01.315Z,77.32
2023-01-19T18:14:27.840Z,74.78
2023-01-19T18:16:54.324Z,73.99
2023-01-19T18:19:22.397Z,73.47
2023-01-19T18:21:48.960Z,74.10
2023-01-19T18:24:15.520Z,74.04
2023-01-19T18:26:42.740Z,74.07
2023-01-19T18:29:09.459Z,74.23
2023-01-19T18:31:35.996Z,75.05
2023-01-19T18:34:02.563Z,75.36
2023-01-19T18:36:31.863Z,74.56
2023-01-19T18:38:58.456Z,74.37
2023-01-19T18:41:25.054Z,74.13
2023-01-19T18:43:53.500Z,73.43
2023-01-19T18:46:21.158Z,73.74
2023-01-19T18:48:47.785Z,74.34
2023-01-19T18:51:14.904Z,73.79
2023-01-19T18:53:41.535Z,74.53
2023-01-19T18:56:08.615Z,73.54
2023-01-19T18:58:36.913Z,74.30
2023-01-19T19:01:03.660Z,74.75
2023-01-19T19:03:30.253Z,74.09
2023-01-19T19:05:56.871Z,73.95
2023-01-19T19:08:23.564Z,73.16
2023-01-19T19:10:50.373Z,73.76
2023-01-19T19:13:17.624Z,73.95
2023-01-19T19:15:44.408Z,73.21
2023-01-19T19:18:13.953Z,74.33
2023-01-19T19:20:42.013Z,74.32
2023-01-19T19:23:08.570Z,74.48
2023-01-19T19:25:35.130Z,74.17
2023-01-19T19:28:01.607Z,75.58
2023-01-19T19:30:28.262Z,75.59
2023-01-19T19:32:57.159Z,75.84
2023-01-19T19:35:23.870Z,75.92
2023-01-19T19:37:51.450Z,75.92
2023-01-19T19:40:18.122Z,75.92
2023-01-19T19:42:44.641Z,74.99
2023-01-19T19:45:11.879Z,75.07
2023-01-19T19:47:38.388Z,75.20
2023-01-19T19:50:05.056Z,74.99
2023-01-19T19:52:31.975Z,74.96
2023-01-19T19:54:58.671Z,74.94
2023-01-19T19:57:25.293Z,74.77
2023-01-19T19:59:52.253Z,75.83
2023-01-19T20:02:18.953Z,75.60
2023-01-19T20:04:45.710Z,76.09
2023-01-19T20:07:12.271Z,76.06
2023-01-19T20:09:38.886Z,75.82
2023-01-19T20:12:05.635Z,75.97
2023-01-19T20:14:32.136Z,76.00
2023-01-19T20:16:59.105Z,76.25
2023-01-19T20:19:25.695Z,75.95
2023-01-19T20:21:52.251Z,76.05
2023-01-19T20:24:19.705Z,76.07
2023-01-19T20:26:48.294Z,76.51
2023-01-19T20:29:14.954Z,77.39
2023-01-19T20:31:49.756Z,76.69
2023-01-19T20:34:17.202Z,77.37
2023-01-19T20:36:46.763Z,78.34
2023-01-19T20:39:13.281Z,78.08
2023-01-19T20:41:43.657Z,77.92
2023-01-19T20:44:15.016Z,77.37
2023-01-19T20:46:41.531Z,78.29
2023-01-19T20:49:08.045Z,78.11
2023-01-19T20:51:35.964Z,78.05
2023-01-19T20:54:02.485Z,77.62
2023-01-19T20:56:29.088Z,77.26
2023-01-19T20:58:55.666Z,77.11
2023-01-19T21:01:23.782Z,76.76
2023-01-19T21:03:50.662Z,77.47
2023-01-19T21:06:17.733Z,77.29
2023-01-19T21:08:44.277Z,77.94
2023-01-19T21:11:11.171Z,77.51
2023-01-19T21:13:37.696Z,78.02
2023-01-19T21:16:04.525Z,78.00
2023-01-19T21:18:31.218Z,77.47
2023-01-19T21:20:58.037Z,78.07
2023-01-19T21:23:25.518Z,78.24
2023-01-19T21:25:52.999Z,78.26
2023-01-19T21:28:19.746Z,77.79
2023-01-19T21:30:46.311Z,78.27
2023-01-19T21:33:12.935Z,77.73
2023-01-19T21:35:39.538Z,77.63
2023-01-19T21:38:06.142Z,79.76
2023-01-19T21:40:32.676Z,79.51
2023-01-19T21:42:59.206Z,80.80
2023-01-19T21:45:25.687Z,80.19
2023-01-19T21:47:52.197Z,81.22
2023-01-19T21:50:19.528Z,80.23
2023-01-19T21:52:46.016Z,79.59
2023-01-19T21:55:12.797Z,80.46
2023-01-19T21:57:39.445Z,80.39
2023-01-19T22:00:06.698Z,79.90
2023-01-19T22:02:38.542Z,79.10
2023-01-19T22:05:06.574Z,80.22
2023-01-19T22:07:33.149Z,80.11
2023-01-19T22:09:59.699Z,80.21
2023-01-19T22:12:26.259Z,80.56
2023-01-19T22:14:52.788Z,80.64
2023-01-19T22:17:19.314Z,80.72
2023-01-19T22:19:45.961Z,81.81
2023-01-19T22:22:12.534Z,81.84
2023-01-19T22:24:39.464Z,81.49
2023-01-19T22:27:06.034Z,81.42
2023-01-19T22:29:32.511Z,81.76
2023-01-19T22:31:58.981Z,82.79
2023-01-19T22:34:25.671Z,82.67
2023-01-19T22:36:52.201Z,82.02
2023-01-19T22:39:18.705Z,82.23
2023-01-19T22:41:46.204Z,81.52
2023-01-19T22:44:17.316Z,80.96
2023-01-19T22:46:43.857Z,80.17
2023-01-19T22:49:12.303Z,80.99
2023-01-19T22:51:38.799Z,82.69
2023-01-19T22:54:05.378Z,82.48
2023-01-19T22:56:33.414Z,81.02
2023-01-19T22:59:00.236Z,79.68
2023-01-19T23:01:33.298Z,79.83
2023-01-19T23:04:00.570Z,79.64
2023-01-19T23:06:28.621Z,79.90
2023-01-19T23:08:56.120Z,79.11
2023-01-19T23:11:27.367Z,80.53
2023-01-19T23:13:53.928Z,80.14
2023-01-19T23:16:20.625Z,79.45
2023-01-19T23:18:47.256Z,79.55
2023-01-19T23:21:15.800Z,79.95
2023-01-19T23:23:43.084Z,81.58
2023-01-19T23:26:14.416Z,81.23
2023-01-19T23:28:41.148Z,82.02
2023-01-19T23:31:17.479Z,81.61
2023-01-19T23:33:44.236Z,82.23
2023-01-19T23:36:11.795Z,80.77
2023-01-19T23:38:38.472Z,79.34
2023-01-19T23:41:05.144Z,79.09
2023-01-19T23:43:31.614Z,79.94
2023-01-19T23:46:03.214Z,79.00
2023-01-19T23:48:29.754Z,78.79
2023-01-19T23:50:56.264Z,78.65
2023-01-19T23:53:22.777Z,79.51
2023-01-19T23:55:49.402Z,79.69
2023-01-19T23:58:15.983Z,79.62
